Time;durP1;ratioP1;P1;durP2;ratioP2;P2;SDS_P1;SDS_P2;PMS_P1;PMS_P2;Temp;Humidity;BMP_temperature;BMP_pressure;BME280_temperature;BME280_humidity;BME280_pressure;Samples;Min_cycle;Max_cycle;Signal;HPM_P1;HPM_P2
2023/07/30 00:00:51;;;;;;;1.30;0.90;;;;;;;15.77;100.00;98585.52;106586;1258;99421;-60
2023/07/30 00:03:39;;;;;;;5.60;1.10;;;;;;;15.77;100.00;98585.35;106299;1257;22533;-61
2023/07/30 00:06:09;;;;;;;1.30;1.10;;;;;;;15.81;100.00;98587.49;106574;1257;99611;-63
2023/07/30 00:08:38;;;;;;;1.50;1.30;;;;;;;15.85;100.00;98589.36;108424;1259;24289;-65
2023/07/30 00:11:07;;;;;;;1.20;1.10;;;;;;;15.87;100.00;98593.25;106355;1257;99487;-60
2023/07/30 00:13:36;;;;;;;1.80;1.10;;;;;;;15.88;100.00;98597.02;106401;1258;22537;-61
2023/07/30 00:16:05;;;;;;;1.00;0.90;;;;;;;15.88;100.00;98603.10;106310;1260;22851;-61
2023/07/30 00:18:34;;;;;;;1.70;1.20;;;;;;;15.92;100.00;98602.70;106318;1257;99327;-61
2023/07/30 00:21:03;;;;;;;2.40;1.00;;;;;;;15.92;100.00;98602.83;106467;1258;23039;-61
2023/07/30 00:23:32;;;;;;;1.30;1.10;;;;;;;15.88;100.00;98602.62;110077;1257;99893;-59
2023/07/30 00:26:01;;;;;;;2.70;1.20;;;;;;;15.87;100.00;98606.93;110100;1257;22109;-59
2023/07/30 00:28:30;;;;;;;2.40;1.30;;;;;;;15.87;100.00;98606.21;109852;1257;22619;-61
2023/07/30 00:30:59;;;;;;;4.30;1.00;;;;;;;15.88;100.00;98595.75;106238;1258;99311;-60
2023/07/30 00:33:28;;;;;;;1.00;0.90;;;;;;;15.94;100.00;98593.91;106401;1258;22709;-62
2023/07/30 00:35:57;;;;;;;1.40;1.00;;;;;;;15.98;100.00;98596.23;106290;1258;99348;-60
2023/07/30 00:38:27;;;;;;;0.90;0.80;;;;;;;15.95;100.00;98600.45;106646;1258;25359;-61
2023/07/30 00:40:56;;;;;;;4.30;1.30;;;;;;;15.95;100.00;98597.02;106331;1257;102475;-62
2023/07/30 00:43:25;;;;;;;1.70;1.10;;;;;;;15.97;100.00;98589.95;106515;1258;22510;-60
2023/07/30 00:45:55;;;;;;;0.90;0.70;;;;;;;15.99;100.00;98596.26;106427;1258;24046;-62
2023/07/30 00:48:24;;;;;;;1.30;1.10;;;;;;;16.00;100.00;98594.10;106340;1257;99347;-61
2023/07/30 00:50:53;;;;;;;0.90;0.80;;;;;;;15.99;100.00;98593.13;106454;1257;24293;-61
2023/07/30 00:53:26;;;;;;;4.20;0.90;;;;;;;15.99;100.00;98586.61;106267;1258;99846;-62
2023/07/30 00:55:55;;;;;;;0.80;0.80;;;;;;;15.98;100.00;98591.45;106391;1258;24270;-62
2023/07/30 00:58:27;;;;;;;1.20;1.10;;;;;;;15.90;100.00;98595.27;106334;1257;24262;-61
2023/07/30 01:00:56;;;;;;;1.40;1.00;;;;;;;15.87;100.00;98596.41;106292;1257;99411;-61
2023/07/30 01:03:25;;;;;;;2.50;1.40;;;;;;;15.86;100.00;98596.48;106364;1257;24048;-62
2023/07/30 01:05:56;;;;;;;1.70;1.10;;;;;;;15.81;100.00;98594.98;106338;1257;99894;-62
2023/07/30 01:08:25;;;;;;;2.00;1.20;;;;;;;15.78;100.00;98595.79;106360;1257;22522;-61
2023/07/30 01:10:55;;;;;;;1.60;1.20;;;;;;;15.75;100.00;98594.33;106299;1258;107575;-61
2023/07/30 01:13:26;;;;;;;2.20;1.30;;;;;;;15.73;100.00;98594.64;106321;1257;22521;-60
2023/07/30 01:15:55;;;;;;;1.40;1.20;;;;;;;15.69;100.00;98601.52;106405;1258;23923;-62
2023/07/30 01:18:24;;;;;;;1.80;1.20;;;;;;;15.67;100.00;98604.40;106272;1258;99904;-61
2023/07/30 01:20:53;;;;;;;1.70;0.90;;;;;;;15.65;100.00;98597.21;106392;1257;24552;-64
2023/07/30 01:23:22;;;;;;;2.10;1.20;;;;;;;15.62;100.00;98593.96;106444;1257;99741;-61
2023/07/30 01:26:12;;;;;;;2.50;1.20;;;;;;;15.62;100.00;98600.48;107110;1258;22528;-63
2023/07/30 01:28:48;;;;;;;2.90;1.20;;;;;;;15.62;100.00;98602.95;106428;1260;22550;-62
2023/07/30 01:31:25;;;;;;;2.10;1.00;;;;;;;15.60;100.00;98606.06;106426;1257;24217;-61
2023/07/30 01:33:56;;;;;;;1.20;1.00;;;;;;;15.59;100.00;98609.64;106443;1257;22527;-63
2023/07/30 01:36:27;;;;;;;1.90;1.20;;;;;;;15.57;100.00;98610.93;106360;1257;99327;-61
2023/07/30 01:38:57;;;;;;;2.60;1.00;;;;;;;15.59;100.00;98602.83;106480;1257;25371;-64
2023/07/30 01:41:26;;;;;;;2.50;0.90;;;;;;;15.62;100.00;98604.30;106411;1257;99594;-63
2023/07/30 01:43:55;;;;;;;1.30;1.00;;;;;;;15.66;100.00;98608.73;106413;1257;22540;-62
2023/07/30 01:46:24;;;;;;;1.20;1.10;;;;;;;15.65;100.00;98614.92;106486;1257;22550;-62
2023/07/30 01:48:53;;;;;;;1.30;1.20;;;;;;;15.66;100.00;98616.08;106444;1257;99682;-61
2023/07/30 01:51:23;;;;;;;1.40;1.30;;;;;;;15.64;100.00;98618.55;106544;1257;22536;-62
2023/07/30 01:53:52;;;;;;;1.70;1.40;;;;;;;15.65;100.00;98619.31;106334;1257;99285;-62
2023/07/30 01:56:26;;;;;;;1.50;1.20;;;;;;;15.67;100.00;98622.02;106488;1257;22980;-60
2023/07/30 01:58:55;;;;;;;7.20;1.90;;;;;;;15.65;100.00;98618.27;106288;1257;99593;-61
2023/07/30 02:01:27;;;;;;;1.70;1.20;;;;;;;15.65;100.00;98621.80;106438;1257;25384;-61
2023/07/30 02:04:05;;;;;;;3.30;1.50;;;;;;;15.65;100.00;98627.77;106456;1257;23816;-62
2023/07/30 02:06:34;;;;;;;1.60;1.50;;;;;;;15.63;100.00;98628.59;106278;1257;99833;-61
2023/07/30 02:09:04;;;;;;;1.90;1.40;;;;;;;15.67;100.00;98630.07;106459;1257;25216;-61
2023/07/30 02:11:53;;;;;;;2.60;1.70;;;;;;;15.68;100.00;98633.47;106371;1258;99411;-61
2023/07/30 02:14:22;;;;;;;2.60;1.60;;;;;;;15.70;100.00;98630.88;106575;1257;24436;-60
2023/07/30 02:16:51;;;;;;;2.10;1.60;;;;;;;15.73;100.00;98626.08;106380;1257;99442;-61
2023/07/30 02:19:20;;;;;;;1.40;1.20;;;;;;;15.72;100.00;98622.29;106435;1257;22640;-62
2023/07/30 02:21:52;;;;;;;2.60;1.60;;;;;;;15.69;100.00;98623.01;106463;1257;22541;-61
2023/07/30 02:24:21;;;;;;;1.60;1.20;;;;;;;15.63;100.00;98631.81;106317;1257;99696;-61
2023/07/30 02:26:50;;;;;;;2.70;1.30;;;;;;;15.61;100.00;98635.08;106351;1258;22771;-62
2023/07/30 02:29:19;;;;;;;1.70;1.30;;;;;;;15.57;100.00;98643.86;106376;1257;99455;-62
2023/07/30 02:31:48;;;;;;;2.20;1.60;;;;;;;15.55;100.00;98641.64;106441;1257;22534;-62
2023/07/30 02:34:25;;;;;;;1.60;1.50;;;;;;;15.53;100.00;98640.88;106434;1257;22558;-64
2023/07/30 02:36:57;;;;;;;2.10;1.70;;;;;;;15.58;100.00;98642.59;106367;1257;99285;-61
2023/07/30 02:39:26;;;;;;;2.50;2.20;;;;;;;15.59;100.00;98643.92;106471;1257;25340;-62
2023/07/30 02:41:55;;;;;;;2.00;1.60;;;;;;;15.61;100.00;98643.88;106376;1257;99311;-61
2023/07/30 02:44:24;;;;;;;3.80;2.80;;;;;;;15.64;100.00;98643.60;106430;1257;23909;-62
2023/07/30 02:46:53;;;;;;;2.30;1.80;;;;;;;15.68;100.00;98642.05;106344;1257;99513;-63
2023/07/30 02:49:25;;;;;;;2.20;2.00;;;;;;;15.72;100.00;98639.27;106423;1257;25450;-61
2023/07/30 02:51:54;;;;;;;3.30;2.20;;;;;;;15.74;100.00;98642.60;106367;1257;24402;-62
2023/07/30 02:54:23;;;;;;;2.50;2.20;;;;;;;15.81;100.00;98641.66;106326;1257;99267;-61
2023/07/30 02:56:52;;;;;;;3.40;2.40;;;;;;;15.85;100.00;98645.03;106472;1257;22529;-61
2023/07/30 02:59:21;;;;;;;3.00;2.50;;;;;;;15.89;100.00;98646.23;106303;1257;99593;-62
2023/07/30 03:01:51;;;;;;;3.30;2.40;;;;;;;15.91;100.00;98645.21;106359;1257;22546;-61
2023/07/30 03:04:22;;;;;;;2.60;2.40;;;;;;;15.90;100.00;98640.55;106317;1257;22558;-61
2023/07/30 03:06:51;;;;;;;2.60;2.30;;;;;;;15.89;100.00;98641.27;106278;1258;99299;-61
2023/07/30 03:09:20;;;;;;;2.20;2.00;;;;;;;15.88;100.00;98639.80;106340;1257;24267;-62
2023/07/30 03:11:50;;;;;;;7.40;2.60;;;;;;;15.83;100.00;98642.04;106293;1257;99340;-61
2023/07/30 03:14:22;;;;;;;2.90;2.20;;;;;;;15.80;100.00;98641.35;106405;1257;24091;-61
2023/07/30 03:16:51;;;;;;;2.40;2.20;;;;;;;15.84;100.00;98648.98;106396;1257;99565;-60
2023/07/30 03:19:23;;;;;;;7.50;2.60;;;;;;;15.90;100.00;98650.89;106341;1257;24201;-63
2023/07/30 03:21:52;;;;;;;3.20;2.40;;;;;;;15.92;100.00;98647.75;106393;1257;25484;-64
2023/07/30 03:24:21;;;;;;;2.40;2.00;;;;;;;15.93;100.00;98650.49;106270;1257;99444;-64
2023/07/30 03:26:50;;;;;;;3.60;2.60;;;;;;;15.95;100.00;98652.27;106358;1257;22552;-62
2023/07/30 03:29:19;;;;;;;1.90;1.70;;;;;;;15.97;100.00;98650.65;106313;1257;99475;-64
2023/07/30 03:31:48;;;;;;;5.50;3.00;;;;;;;16.04;100.00;98660.92;106337;1257;23887;-61
2023/07/30 03:34:17;;;;;;;4.70;2.70;;;;;;;16.09;100.00;98660.80;106351;1258;22583;-64
2023/07/30 03:36:47;;;;;;;3.40;2.80;;;;;;;16.16;100.00;98662.48;106322;1257;99411;-61
2023/07/30 03:39:15;;;;;;;3.20;2.30;;;;;;;16.24;100.00;98663.52;106430;1257;24256;-61
2023/07/30 03:41:45;;;;;;;6.40;2.70;;;;;;;16.31;100.00;98666.59;106330;1257;99314;-61
2023/07/30 03:44:14;;;;;;;2.70;2.40;;;;;;;16.37;100.00;98661.09;106410;1257;25519;-61
2023/07/30 03:46:44;;;;;;;3.30;2.70;;;;;;;16.41;100.00;98662.25;106443;1257;22647;-62
2023/07/30 03:49:13;;;;;;;3.00;2.60;;;;;;;16.49;100.00;98661.74;106311;1257;99159;-62
2023/07/30 03:51:42;;;;;;;5.00;2.90;;;;;;;16.60;100.00;98662.54;106472;1257;24344;-62
2023/07/30 03:54:11;;;;;;;3.50;2.80;;;;;;;16.66;100.00;98660.77;106394;1257;99297;-61
2023/07/30 03:56:43;;;;;;;3.40;3.00;;;;;;;16.70;100.00;98665.77;106407;1257;23016;-61
2023/07/30 03:59:12;;;;;;;4.70;3.10;;;;;;;16.78;100.00;98664.80;106311;1259;102483;-61
2023/07/30 04:01:41;;;;;;;3.10;2.80;;;;;;;16.82;100.00;98667.11;106270;1260;22537;-63
2023/07/30 04:04:11;;;;;;;4.00;3.20;;;;;;;16.81;100.00;98668.92;106250;1260;22532;-65
2023/07/30 04:06:40;;;;;;;3.30;3.00;;;;;;;16.78;100.00;98665.09;106273;1257;99359;-62
2023/07/30 04:09:09;;;;;;;5.20;3.40;;;;;;;16.83;100.00;98670.40;106257;1257;22601;-61
2023/07/30 04:11:38;;;;;;;4.50;3.30;;;;;;;16.89;100.00;98669.79;106363;1258;99781;-61
2023/07/30 04:14:08;;;;;;;4.00;3.50;;;;;;;16.99;100.00;98671.54;106382;1257;22579;-61
2023/07/30 04:16:37;;;;;;;2.70;2.30;;;;;;;17.01;100.00;98675.04;106364;1257;22541;-62
2023/07/30 04:19:07;;;;;;;3.90;3.20;;;;;;;17.07;100.00;98676.26;106348;1257;99156;-62
2023/07/30 04:21:36;;;;;;;4.00;3.10;;;;;;;17.14;100.00;98681.20;106290;1257;22533;-61
2023/07/30 04:24:05;;;;;;;4.30;2.90;;;;;;;17.20;100.00;98678.58;106337;1257;99304;-61
2023/07/30 04:26:34;;;;;;;4.60;2.60;;;;;;;17.26;100.00;98685.13;106287;1257;25490;-61
2023/07/30 04:29:03;;;;;;;5.20;3.30;;;;;;;17.30;100.00;98682.40;106315;1257;99535;-62
2023/07/30 04:31:32;;;;;;;3.80;3.20;;;;;;;17.33;100.00;98682.50;106412;1257;22542;-62
2023/07/30 04:34:01;;;;;;;4.70;2.50;;;;;;;17.36;100.00;98682.41;106377;1257;24384;-64
2023/07/30 04:36:31;;;;;;;3.40;2.90;;;;;;;17.41;100.00;98684.77;106358;1257;99498;-61
2023/07/30 04:39:00;;;;;;;3.40;2.80;;;;;;;17.46;100.00;98684.84;106378;1257;24224;-62
2023/07/30 04:41:29;;;;;;;3.80;3.40;;;;;;;17.48;100.00;98690.96;106362;1257;99610;-62
2023/07/30 04:44:01;;;;;;;5.80;4.20;;;;;;;17.49;100.00;98689.80;106454;1257;22542;-61
2023/07/30 04:46:30;;;;;;;4.00;3.60;;;;;;;17.50;100.00;98695.04;106520;1257;22549;-61
2023/07/30 04:49:03;;;;;;;6.00;3.80;;;;;;;17.52;100.00;98699.27;106306;1258;99267;-61
2023/07/30 04:51:32;;;;;;;4.40;3.70;;;;;;;17.55;100.00;98702.31;106446;1257;25190;-61
2023/07/30 04:54:01;;;;;;;4.90;3.90;;;;;;;17.56;100.00;98708.55;106374;1257;99435;-64
2023/07/30 04:56:30;;;;;;;4.70;3.40;;;;;;;17.54;100.00;98712.73;106444;1258;22543;-61
2023/07/30 04:59:00;;;;;;;7.40;4.70;;;;;;;17.55;100.00;98707.01;106341;1257;99475;-61
2023/07/30 05:01:31;;;;;;;5.50;4.30;;;;;;;17.54;100.00;98717.02;106417;1257;24209;-62
2023/07/30 05:04:00;;;;;;;5.30;4.20;;;;;;;17.49;100.00;98717.80;106322;1257;22542;-61
2023/07/30 05:06:29;;;;;;;5.80;3.90;;;;;;;17.49;100.00;98718.00;106327;1257;99405;-61
2023/07/30 05:08:58;;;;;;;5.70;4.20;;;;;;;17.49;100.00;98717.46;106431;1257;24273;-62
2023/07/30 05:11:30;;;;;;;7.30;4.80;;;;;;;17.44;100.00;98716.16;106147;1257;242847;-61
2023/07/30 05:13:59;;;;;;;4.30;3.50;;;;;;;17.41;100.00;98721.55;106322;1257;22534;-62
2023/07/30 05:16:28;;;;;;;8.00;5.00;;;;;;;17.41;100.00;98721.98;106434;1257;22744;-62
2023/07/30 05:18:57;;;;;;;6.20;4.50;;;;;;;17.41;100.00;98724.36;106369;1257;99261;-61
2023/07/30 05:21:26;;;;;;;6.20;4.80;;;;;;;17.42;100.00;98724.05;106375;1257;22602;-61
2023/07/30 05:23:56;;;;;;;6.00;4.90;;;;;;;17.48;100.00;98723.38;106299;1257;99453;-61
2023/07/30 05:26:26;;;;;;;4.60;3.90;;;;;;;17.49;100.00;98725.19;106662;1257;25232;-60
2023/07/30 05:28:55;;;;;;;3.50;3.10;;;;;;;17.56;100.00;98721.32;106269;1258;99465;-68
2023/07/30 05:31:24;;;;;;;7.20;5.50;;;;;;;17.65;100.00;98719.83;106392;1257;24363;-62
2023/07/30 05:33:53;;;;;;;6.50;5.00;;;;;;;17.68;100.00;98723.20;106367;1257;26236;-63
2023/07/30 05:36:25;;;;;;;7.00;5.00;;;;;;;17.76;100.00;98726.79;106287;1257;99304;-62
2023/07/30 05:38:54;;;;;;;4.90;4.20;;;;;;;17.84;100.00;98723.70;106283;1257;25410;-61
2023/07/30 05:41:23;;;;;;;4.40;4.00;;;;;;;17.96;100.00;98723.70;106659;1257;99500;-62
2023/07/30 05:43:52;;;;;;;6.00;5.10;;;;;;;18.10;100.00;98725.04;106284;1257;24244;-60
2023/07/30 05:46:21;;;;;;;5.80;4.00;;;;;;;18.26;100.00;98721.59;106353;1257;25387;-62
2023/07/30 05:48:50;;;;;;;7.20;5.80;;;;;;;18.39;100.00;98719.59;106270;1257;99920;-60
2023/07/30 05:51:19;;;;;;;5.60;4.70;;;;;;;18.61;100.00;98723.89;106296;1257;22537;-61
2023/07/30 05:53:48;;;;;;;8.40;5.20;;;;;;;18.84;100.00;98725.17;106217;1257;99289;-60
2023/07/30 05:56:18;;;;;;;6.10;4.00;;;;;;;19.00;100.00;98723.45;106397;1257;22534;-60
2023/07/30 05:58:47;;;;;;;4.90;3.70;;;;;;;19.16;100.00;98723.13;106420;1257;22500;-62
2023/07/30 06:01:17;;;;;;;5.60;4.70;;;;;;;19.38;100.00;98726.77;106270;1259;25430;-63
2023/07/30 06:03:46;;;;;;;6.60;4.10;;;;;;;19.55;100.00;98731.08;106244;1259;22633;-58
2023/07/30 06:06:15;;;;;;;3.60;3.20;;;;;;;19.55;100.00;98730.91;106352;1257;99419;-59
2023/07/30 06:08:44;;;;;;;5.70;4.20;;;;;;;19.56;100.00;98732.11;106376;1257;24311;-60
2023/07/30 06:11:13;;;;;;;4.80;3.80;;;;;;;19.65;100.00;98733.55;106268;1257;99575;-61
2023/07/30 06:13:42;;;;;;;4.40;3.30;;;;;;;19.62;100.00;98736.34;106419;1257;22889;-58
2023/07/30 06:16:11;;;;;;;2.90;2.70;;;;;;;19.70;100.00;98739.78;106409;1257;25570;-57
2023/07/30 06:18:41;;;;;;;4.80;3.50;;;;;;;19.77;100.00;98739.09;106960;1257;99909;-58
2023/07/30 06:21:10;;;;;;;3.30;2.80;;;;;;;19.90;100.00;98740.09;106468;1257;25445;-59
2023/07/30 06:23:39;;;;;;;4.20;3.20;;;;;;;20.09;100.00;98740.45;106331;1257;99292;-58
2023/07/30 06:26:08;;;;;;;3.10;2.80;;;;;;;20.30;100.00;98744.09;106451;1257;25358;-59
2023/07/30 06:28:37;;;;;;;3.90;2.50;;;;;;;20.50;100.00;98742.96;106443;1258;25505;-59
2023/07/30 06:31:07;;;;;;;4.60;2.70;;;;;;;20.54;100.00;98747.98;106330;1257;99547;-60
2023/07/30 06:33:37;;;;;;;3.10;2.70;;;;;;;20.52;100.00;98751.58;106399;1257;25338;-61
2023/07/30 06:36:08;;;;;;;3.00;2.30;;;;;;;20.48;100.00;98752.83;106220;1257;99428;-59
2023/07/30 06:38:37;;;;;;;4.60;2.20;;;;;;;20.55;100.00;98748.80;106415;1257;22645;-58
2023/07/30 06:41:07;;;;;;;3.60;2.30;;;;;;;20.72;100.00;98747.41;106275;1257;100998;-57
2023/07/30 06:43:36;;;;;;;3.80;2.20;;;;;;;20.98;100.00;98749.23;106406;1257;25531;-60
2023/07/30 06:46:06;;;;;;;4.50;2.50;;;;;;;21.20;100.00;98748.11;106415;1257;25637;-59
2023/07/30 06:48:35;;;;;;;3.20;2.00;;;;;;;21.44;100.00;98751.25;106272;1257;99420;-63
2023/07/30 06:51:12;;;;;;;3.00;2.00;;;;;;;21.77;100.00;98750.70;106392;1257;24118;-58
2023/07/30 06:53:41;;;;;;;1.80;1.60;;;;;;;21.95;100.00;98753.80;106418;1260;99240;-58
2023/07/30 06:56:10;;;;;;;2.90;2.40;;;;;;;22.13;100.00;98759.32;106106;1259;22579;-59
2023/07/30 06:58:39;;;;;;;3.40;2.20;;;;;;;22.23;99.99;98761.64;106173;1260;22647;-58
2023/07/30 07:01:18;;;;;;;2.10;1.80;;;;;;;22.29;99.59;98761.27;106214;1257;98921;-58
2023/07/30 07:03:47;;;;;;;2.80;1.40;;;;;;;22.24;99.03;98765.00;108004;1257;23709;-61
2023/07/30 07:06:16;;;;;;;2.30;1.70;;;;;;;22.33;99.14;98768.43;106742;1257;99583;-58
2023/07/30 07:08:45;;;;;;;1.80;1.30;;;;;;;22.46;98.92;98766.46;106411;1257;24256;-59
2023/07/30 07:11:15;;;;;;;2.30;1.80;;;;;;;22.77;99.57;98763.70;106394;1257;102889;-59
2023/07/30 07:13:44;;;;;;;2.00;1.80;;;;;;;23.27;99.66;98759.15;106326;1258;25565;-60
2023/07/30 07:16:13;;;;;;;2.80;2.20;;;;;;;23.77;99.16;98754.67;106547;1257;25312;-59
2023/07/30 07:18:43;;;;;;;3.50;2.00;;;;;;;23.97;97.30;98757.16;106544;1257;99147;-60
2023/07/30 07:21:13;;;;;;;3.80;2.20;;;;;;;24.45;99.78;98754.69;106630;1257;23384;-62
2023/07/30 07:23:42;;;;;;;2.40;1.60;;;;;;;25.90;100.00;98756.27;106463;1257;99238;-63
2023/07/30 07:26:12;;;;;;;2.40;1.70;;;;;;;26.98;98.57;98755.64;106449;1257;22549;-62
2023/07/30 07:28:42;;;;;;;2.80;1.60;;;;;;;27.57;96.23;98756.65;106401;1257;25292;-60
2023/07/30 07:31:12;;;;;;;3.80;1.90;;;;;;;28.18;95.80;98758.02;106344;1257;99031;-60
2023/07/30 07:33:41;;;;;;;2.40;1.80;;;;;;;28.07;92.88;98756.31;106389;1257;25423;-60
2023/07/30 07:36:10;;;;;;;2.50;1.90;;;;;;;28.41;96.12;98758.88;106327;1257;99264;-58
2023/07/30 07:38:40;;;;;;;2.50;1.30;;;;;;;28.76;92.98;98757.30;106381;1257;24268;-61
2023/07/30 07:41:16;;;;;;;3.10;1.60;;;;;;;28.69;90.42;98759.31;106260;1257;99410;-61
2023/07/30 07:43:47;;;;;;;2.20;1.30;;;;;;;28.31;88.45;98759.70;106417;1257;22550;-61
2023/07/30 07:46:16;;;;;;;2.00;1.60;;;;;;;27.69;87.51;98758.63;106393;1257;25410;-58
2023/07/30 07:48:45;;;;;;;2.60;1.50;;;;;;;26.95;86.52;98759.63;106295;1258;99303;-59
2023/07/30 07:51:14;;;;;;;2.40;1.20;;;;;;;26.82;88.06;98761.56;106339;1257;23032;-61
2023/07/30 07:53:43;;;;;;;2.50;1.50;;;;;;;28.28;89.10;98761.66;106233;1257;99207;-59
2023/07/30 07:56:12;;;;;;;2.00;1.20;;;;;;;30.01;88.96;98758.89;106383;1258;24922;-59
2023/07/30 07:58:42;;;;;;;2.60;1.20;;;;;;;30.53;86.18;98758.68;106410;1258;24563;-63
2023/07/30 08:01:11;;;;;;;1.70;1.10;;;;;;;32.04;87.65;98757.20;106436;1257;99178;-61
2023/07/30 08:03:40;;;;;;;1.30;0.90;;;;;;;33.68;84.78;98758.58;106382;1257;24177;-61
2023/07/30 08:06:10;;;;;;;1.80;1.10;;;;;;;34.12;80.31;98769.30;106297;1257;99030;-60
2023/07/30 08:08:39;;;;;;;1.00;0.90;;;;;;;34.90;81.51;98771.23;106492;1258;25496;-61
2023/07/30 08:11:14;;;;;;;1.20;0.90;;;;;;;36.53;80.59;98767.81;106474;1257;99825;-59
2023/07/30 08:13:45;;;;;;;2.90;0.90;;;;;;;36.79;75.38;98770.19;106347;1257;24366;-60
2023/07/30 08:16:14;;;;;;;1.60;0.90;;;;;;;36.81;73.61;98767.52;106493;1257;22533;-59
2023/07/30 08:18:44;;;;;;;2.00;0.90;;;;;;;35.43;70.65;98769.52;108770;1257;99632;-59
2023/07/30 08:21:13;;;;;;;1.70;1.20;;;;;;;33.96;70.11;98767.09;106285;1257;22618;-58
2023/07/30 08:23:42;;;;;;;1.20;0.80;;;;;;;33.02;69.91;98765.33;106435;1257;99300;-62
2023/07/30 08:26:12;;;;;;;1.30;0.90;;;;;;;34.11;71.03;98763.02;106400;1257;22559;-60
2023/07/30 08:28:41;;;;;;;1.30;0.70;;;;;;;36.20;68.73;98764.73;106505;1257;25478;-61
2023/07/30 08:31:10;;;;;;;1.20;0.80;;;;;;;38.38;67.39;98766.10;106346;1257;99195;-61
2023/07/30 08:33:43;;;;;;;0.70;0.70;;;;;;;40.26;64.71;98761.20;106360;1258;25254;-60
2023/07/30 08:36:13;;;;;;;0.80;0.60;;;;;;;40.77;62.99;98761.95;106299;1257;99253;-61
2023/07/30 08:38:42;;;;;;;0.70;0.50;;;;;;;42.24;60.86;98762.90;106435;1257;25290;-63
2023/07/30 08:41:11;;;;;;;1.40;0.70;;;;;;;41.69;57.14;98761.07;106444;1258;99421;-60
2023/07/30 08:43:44;;;;;;;0.70;0.60;;;;;;;39.06;52.80;98767.00;106179;1260;24324;-60
2023/07/30 08:46:13;;;;;;;1.60;0.70;;;;;;;36.45;52.56;98766.23;106235;1260;22553;-61
2023/07/30 08:48:48;;;;;;;1.10;0.80;;;;;;;34.95;53.02;98766.23;106324;1258;99225;-59
2023/07/30 08:51:19;;;;;;;0.80;0.60;;;;;;;37.04;53.94;98764.42;106336;1258;24068;-57
2023/07/30 08:53:49;;;;;;;1.40;0.80;;;;;;;40.19;53.46;98760.51;106839;1257;100447;-61
2023/07/30 08:56:19;;;;;;;1.20;0.60;;;;;;;42.97;52.42;98764.77;106232;1257;22915;-58
2023/07/30 08:58:53;;;;;;;1.30;0.80;;;;;;;45.29;50.92;98763.08;106088;1258;22579;-58
2023/07/30 09:01:26;;;;;;;3.00;0.80;;;;;;;46.60;48.29;98763.00;106394;1257;22659;-60
2023/07/30 09:04:00;;;;;;;0.90;0.60;;;;;;;46.67;45.13;98753.81;106262;1257;25210;-58
2023/07/30 09:06:30;;;;;;;1.10;0.80;;;;;;;46.11;43.50;98751.82;106311;1257;99270;-59
2023/07/30 09:09:03;;;;;;;0.90;0.70;;;;;;;45.88;41.46;98751.36;106271;1257;22567;-60
2023/07/30 09:11:34;;;;;;;1.60;0.60;;;;;;;43.67;39.20;98757.86;106387;1258;99456;-61
2023/07/30 09:14:09;;;;;;;2.40;0.50;;;;;;;40.76;37.61;98755.75;106393;1257;23127;-59
2023/07/30 09:16:48;;;;;;;1.00;0.60;;;;;;;41.52;38.72;98756.80;106551;1258;24220;-58
2023/07/30 09:19:19;;;;;;;1.00;0.70;;;;;;;43.26;36.83;98756.20;106309;1260;24230;-57
2023/07/30 09:21:48;;;;;;;2.50;0.50;;;;;;;41.83;35.77;98752.10;107667;1260;24244;-58
2023/07/30 09:24:22;;;;;;;0.70;0.50;;;;;;;43.28;35.98;98752.66;106411;1257;99319;-63
2023/07/30 09:26:51;;;;;;;0.50;0.50;;;;;;;45.22;35.05;98751.31;106430;1257;24232;-64
2023/07/30 09:29:26;;;;;;;1.70;0.60;;;;;;;47.14;34.60;98750.57;106401;1257;99447;-62
2023/07/30 09:32:03;;;;;;;1.60;0.90;;;;;;;48.25;31.42;98751.58;106527;1258;25489;-62
2023/07/30 09:34:33;;;;;;;0.70;0.60;;;;;;;46.03;28.80;98756.92;106729;1258;24249;-61
2023/07/30 09:37:03;;;;;;;1.70;0.80;;;;;;;44.20;28.96;98766.27;106334;1258;99330;-59
2023/07/30 09:39:32;;;;;;;1.40;0.50;;;;;;;43.02;29.17;98763.89;106667;1258;22913;-66
2023/07/30 09:42:05;;;;;;;1.50;0.60;;;;;;;41.97;28.78;98775.48;106232;1257;101097;-66
2023/07/30 09:44:38;;;;;;;1.10;0.50;;;;;;;39.10;29.51;98781.42;106293;1257;22610;-64
2023/07/30 09:47:14;;;;;;;1.10;0.50;;;;;;;36.28;30.35;98782.84;106654;1258;99402;-62
2023/07/30 09:49:45;;;;;;;2.40;0.60;;;;;;;34.38;31.42;98789.60;106661;1257;25550;-66
2023/07/30 09:52:24;;;;;;;0.70;0.50;;;;;;;32.99;32.14;98781.91;106454;1257;23326;-60
2023/07/30 09:54:55;;;;;;;1.00;0.60;;;;;;;31.99;32.93;98781.41;106701;1258;116401;-67
2023/07/30 09:57:25;;;;;;;1.70;0.50;;;;;;;31.25;33.37;98779.73;106697;1257;25244;-62
2023/07/30 09:59:56;;;;;;;1.30;0.50;;;;;;;30.58;33.92;98774.91;106428;1257;99252;-63
2023/07/30 10:02:31;;;;;;;1.80;0.80;;;;;;;29.95;34.23;98766.77;106515;1258;22674;-61
2023/07/30 10:05:03;;;;;;;1.30;0.70;;;;;;;29.37;34.91;98771.58;106467;1257;99445;-56
2023/07/30 10:07:34;;;;;;;1.30;0.80;;;;;;;28.86;35.56;98781.14;106578;1257;25350;-61
2023/07/30 10:10:05;;;;;;;0.70;0.60;;;;;;;28.28;36.20;98786.42;106586;1257;22659;-61
2023/07/30 10:12:37;;;;;;;0.80;0.60;;;;;;;27.49;36.38;98791.64;106439;1257;101315;-66
2023/07/30 10:15:08;;;;;;;1.20;0.90;;;;;;;26.47;36.53;98807.91;106641;1257;22537;-62
2023/07/30 10:31:55;;;;;;;2.20;0.90;;;;;;;22.48;46.11;98831.54;104406;1301;565561;-51
2023/07/30 10:34:44;;;;;;;1.60;0.70;;;;;;;24.92;51.34;98829.55;105866;1287;523280;-54
2023/07/30 10:37:20;;;;;;;0.60;0.40;;;;;;;31.12;48.53;98822.44;106503;1280;99371;-56
2023/07/30 10:39:50;;;;;;;0.70;0.70;;;;;;;34.87;45.08;98823.93;106383;1285;23365;-53
2023/07/30 10:42:19;;;;;;;1.60;0.60;;;;;;;34.35;44.33;98826.70;106595;1284;22918;-55
2023/07/30 10:46:06;;;;;;;1.90;0.70;;;;;;;32.35;44.28;98826.58;103647;1311;553744;-56
2023/07/30 10:48:38;;;;;;;7.20;2.90;;;;;;;31.19;44.97;98825.20;106369;1283;99199;-49
2023/07/30 10:51:26;;;;;;;3.40;1.60;;;;;;;30.57;44.90;98827.95;106012;1272;22543;-50
2023/07/30 10:54:17;;;;;;;1.90;1.10;;;;;;;29.83;45.52;98831.11;106990;1281;22585;-58
2023/07/30 10:57:05;;;;;;;1.80;0.80;;;;;;;29.97;45.82;98826.08;106252;1281;24343;-55
2023/07/30 10:59:36;;;;;;;3.20;0.90;;;;;;;30.03;46.00;98829.83;105818;1280;516609;-54
2023/07/30 11:02:08;;;;;;;1.90;1.20;;;;;;;33.17;47.78;98827.52;106120;1278;98575;-50
2023/07/30 11:04:36;;;;;;;1.40;0.60;;;;;;;37.90;46.57;98824.89;106072;1263;25507;-47
2023/07/30 11:07:05;;;;;;;1.20;0.50;;;;;;;41.46;44.92;98816.38;106004;1280;98385;-54
2023/07/30 11:09:34;;;;;;;3.70;0.50;;;;;;;44.02;43.81;98816.89;106188;1281;25300;-54
2023/07/30 11:12:03;;;;;;;0.70;0.60;;;;;;;46.63;42.68;98820.32;106177;1279;25538;-48
2023/07/30 11:14:33;;;;;;;1.20;0.90;;;;;;;46.45;39.57;98819.96;106201;1278;98469;-50
2023/07/30 11:17:02;;;;;;;1.10;0.90;;;;;;;45.56;37.98;98819.64;106064;1280;22643;-47
2023/07/30 11:19:33;;;;;;;1.30;1.10;;;;;;;45.64;36.82;98818.95;106114;1278;98559;-52
2023/07/30 11:22:06;;;;;;;1.30;1.20;;;;;;;45.56;36.50;98816.15;106187;1280;25253;-49
2023/07/30 11:25:25;;;;;;;;;;;;;;;47.61;34.60;98818.16;103573;1303;544122;-53
2023/07/30 11:27:58;;;;;;;;;;;;;;;46.38;33.29;98810.30;106158;1282;22522;-55
2023/07/30 11:30:28;;;;;;;1.20;1.00;;;;;;;45.20;31.42;98813.36;106226;1283;84939;-54
2023/07/30 11:32:57;;;;;;;1.00;0.80;;;;;;;42.76;30.11;98821.64;106923;1283;22541;-54
2023/07/30 11:35:27;;;;;;;0.90;0.80;;;;;;;40.05;29.76;98823.23;106239;1282;22565;-46
2023/07/30 11:38:07;;;;;;;0.80;0.70;;;;;;;38.39;30.30;98821.14;106030;1285;228472;-57
2023/07/30 11:40:37;;;;;;;1.50;0.60;;;;;;;37.81;30.42;98823.27;106499;1282;25546;-55
2023/07/30 11:43:07;;;;;;;1.50;0.50;;;;;;;37.38;30.40;98816.40;106767;1279;98834;-47
2023/07/30 11:45:39;;;;;;;0.80;0.60;;;;;;;38.04;30.46;98815.09;106189;1280;22592;-53
2023/07/30 11:48:10;;;;;;;1.40;0.60;;;;;;;39.03;31.03;98813.13;105985;1280;98546;-55
2023/07/30 11:50:48;;;;;;;1.00;0.50;;;;;;;41.54;31.09;98807.02;106212;1282;22585;-55